Time;durP1;ratioP1;P1;durP2;ratioP2;P2;SDS_P1;SDS_P2;PMS_P1;PMS_P2;Temp;Humidity;BMP_temperature;BMP_pressure;BME280_temperature;BME280_humidity;BME280_pressure;Samples;Min_cycle;Max_cycle;Signal;HPM_P1;HPM_P2
2024/02/27 00:02:12;;;;;;;22.30;18.73;;;;;;;8.11;72.25;97423.28;5022984;28;20043;-76
2024/02/27 00:04:48;;;;;;;28.08;20.73;;;;;;;8.18;72.70;97429.28;5023952;28;20468;-77
2024/02/27 00:07:23;;;;;;;25.65;20.88;;;;;;;8.15;73.12;97429.78;5024543;28;20043;-75
2024/02/27 00:09:56;;;;;;;25.55;21.70;;;;;;;8.12;73.55;97424.88;5023057;28;20069;-77
2024/02/27 00:12:26;;;;;;;26.05;21.77;;;;;;;8.10;74.43;97427.00;5011596;28;20060;-76
2024/02/27 00:14:53;;;;;;;27.55;21.98;;;;;;;8.10;74.65;97432.38;5007447;28;20069;-76
2024/02/27 00:17:22;;;;;;;25.65;21.35;;;;;;;8.02;74.63;97424.78;5023616;28;20025;-77
2024/02/27 00:19:49;;;;;;;27.20;22.17;;;;;;;7.99;74.51;97419.88;5022868;28;20120;-77
2024/02/27 00:22:16;;;;;;;27.60;23.23;;;;;;;8.03;74.80;97431.75;5022383;28;20030;-77
2024/02/27 00:24:42;;;;;;;27.85;22.95;;;;;;;7.92;74.22;97413.91;5024433;28;20033;-77
2024/02/27 00:27:08;;;;;;;26.48;22.10;;;;;;;7.67;74.61;97386.72;5026221;28;20022;-77
2024/02/27 00:29:34;;;;;;;28.42;23.17;;;;;;;7.86;74.76;97414.91;5025712;28;20064;-77
2024/02/27 00:32:02;;;;;;;26.08;21.27;;;;;;;7.88;74.58;97438.75;5041601;28;20018;-77
2024/02/27 00:34:32;;;;;;;28.60;22.98;;;;;;;7.88;75.40;97444.94;5027313;28;20493;-76
2024/02/27 00:36:58;;;;;;;26.13;22.02;;;;;;;7.83;74.96;97441.34;5024024;28;20030;-77
2024/02/27 00:39:24;;;;;;;28.13;22.25;;;;;;;7.52;74.89;97394.53;5038957;28;20042;-78
2024/02/27 00:41:50;;;;;;;25.70;21.65;;;;;;;7.64;75.07;97428.22;5022998;28;20101;-77
2024/02/27 00:44:20;;;;;;;30.33;23.75;;;;;;;7.68;75.21;97433.88;5024024;28;20037;-78
2024/02/27 00:46:46;;;;;;;27.67;22.50;;;;;;;7.55;75.23;97431.56;5022686;28;20400;-76
2024/02/27 00:49:12;;;;;;;28.88;22.63;;;;;;;7.69;74.65;97462.31;5020033;28;20022;-75
2024/02/27 00:51:37;;;;;;;29.48;22.50;;;;;;;7.56;75.02;97451.94;5037929;28;20033;-75
2024/02/27 00:54:03;;;;;;;31.50;23.58;;;;;;;7.62;75.26;97445.59;5017049;28;20029;-75
2024/02/27 00:56:29;;;;;;;27.13;21.80;;;;;;;7.52;75.18;97445.44;5020473;28;20045;-75
2024/02/27 00:58:55;;;;;;;28.63;22.63;;;;;;;7.63;75.72;97474.03;5021731;28;20025;-76
2024/02/27 01:01:21;;;;;;;26.67;21.13;;;;;;;7.65;75.30;97467.34;5024565;28;20033;-76
2024/02/27 01:03:48;;;;;;;25.83;20.92;;;;;;;7.70;75.17;97469.31;5038257;28;20025;-76
2024/02/27 01:06:14;;;;;;;25.83;20.67;;;;;;;7.68;75.31;97471.41;5020412;28;20048;-76
2024/02/27 01:08:40;;;;;;;25.25;21.65;;;;;;;7.68;75.70;97466.03;5020944;28;20108;-76
2024/02/27 01:11:07;;;;;;;26.30;21.85;;;;;;;7.68;75.02;97473.31;5037501;23;20113;-76
2024/02/27 01:13:34;;;;;;;24.70;21.25;;;;;;;7.76;74.83;97476.38;5029626;28;20029;-76
2024/02/27 01:16:00;;;;;;;26.35;21.55;;;;;;;7.72;75.50;97477.94;5038805;28;20102;-75
2024/02/27 01:18:27;;;;;;;23.25;20.27;;;;;;;7.64;74.48;97475.63;5031479;28;20060;-76
2024/02/27 01:20:53;;;;;;;24.13;19.90;;;;;;;7.69;75.01;97473.03;5040247;28;20037;-76
2024/02/27 01:23:21;;;;;;;22.67;19.73;;;;;;;7.63;74.79;97471.34;5000790;28;20407;-76
2024/02/27 01:25:47;;;;;;;22.90;19.00;;;;;;;7.58;74.43;97461.34;5019801;28;20033;-76
2024/02/27 01:28:17;;;;;;;22.80;19.15;;;;;;;7.64;74.11;97470.28;5018945;28;20108;-76
2024/02/27 01:30:43;;;;;;;23.35;17.95;;;;;;;7.50;74.54;97459.06;5020498;28;20036;-76
2024/02/27 01:33:09;;;;;;;20.17;17.23;;;;;;;7.46;74.20;97454.44;5019693;28;20055;-77
2024/02/27 01:35:37;;;;;;;21.27;17.13;;;;;;;7.58;73.98;97479.31;5022753;28;20045;-77
2024/02/27 01:38:04;;;;;;;20.65;18.05;;;;;;;7.73;73.69;97487.56;5021170;28;20021;-76
2024/02/27 01:40:33;;;;;;;21.52;18.08;;;;;;;7.63;74.10;97479.38;5002598;28;20034;-76
2024/02/27 01:42:59;;;;;;;21.20;17.70;;;;;;;7.44;73.52;97451.19;5005090;28;20091;-77
2024/02/27 01:45:28;;;;;;;19.55;16.95;;;;;;;7.73;72.56;97484.06;5006094;28;20041;-77
2024/02/27 01:47:54;;;;;;;19.95;16.20;;;;;;;7.61;73.39;97474.25;5022195;28;20481;-76
2024/02/27 01:50:22;;;;;;;20.88;16.58;;;;;;;7.74;73.02;97491.88;5003121;28;20021;-76
2024/02/27 01:52:48;;;;;;;20.35;16.33;;;;;;;7.75;72.95;97487.34;5018688;28;20044;-77
2024/02/27 01:55:15;;;;;;;19.27;17.15;;;;;;;7.63;73.01;97479.38;5025362;28;20048;-77
2024/02/27 01:57:41;;;;;;;19.55;16.98;;;;;;;7.68;73.25;97487.47;5022311;28;20076;-76
2024/02/27 02:00:16;;;;;;;19.05;16.27;;;;;;;7.73;73.46;97484.91;5004529;28;20021;-76
2024/02/27 02:02:45;;;;;;;22.27;18.50;;;;;;;7.74;73.38;97488.38;5006146;28;20048;-76
2024/02/27 02:05:14;;;;;;;19.73;16.88;;;;;;;7.74;73.65;97497.25;5017477;28;20032;-77
2024/02/27 02:07:41;;;;;;;22.85;17.63;;;;;;;7.82;73.11;97499.50;5015511;28;20055;-76
2024/02/27 02:10:11;;;;;;;22.25;18.00;;;;;;;7.74;73.07;97488.38;5014051;28;20026;-77
2024/02/27 02:12:38;;;;;;;22.30;18.52;;;;;;;7.80;73.61;97506.97;5012994;28;20065;-77
2024/02/27 02:15:07;;;;;;;20.80;18.25;;;;;;;7.71;73.67;97481.66;5034785;28;20439;-77
2024/02/27 02:17:33;;;;;;;20.48;18.35;;;;;;;7.71;73.76;97480.84;5017563;28;20401;-77
2024/02/27 02:19:59;;;;;;;22.35;18.13;;;;;;;7.65;73.85;97470.03;5031706;28;20022;-77
2024/02/27 02:22:28;;;;;;;22.65;18.30;;;;;;;7.73;73.76;97476.03;5021539;28;20041;-76
2024/02/27 02:24:54;;;;;;;20.83;18.23;;;;;;;7.85;73.71;97492.84;5020368;28;20053;-76
2024/02/27 02:27:27;;;;;;;21.63;18.38;;;;;;;7.83;73.61;97500.31;5020156;28;20065;-77
2024/02/27 02:29:56;;;;;;;22.15;18.42;;;;;;;7.83;74.08;97484.25;5020525;28;20038;-76
2024/02/27 02:32:26;;;;;;;21.05;17.98;;;;;;;7.76;73.31;97473.69;5014655;28;20025;-77
2024/02/27 02:34:53;;;;;;;19.80;17.70;;;;;;;7.77;73.16;97479.88;5003071;28;20033;-77
2024/02/27 02:37:19;;;;;;;21.67;18.45;;;;;;;7.82;73.55;97478.06;5019010;28;20033;-75
2024/02/27 02:39:44;;;;;;;21.92;18.30;;;;;;;7.88;72.62;97481.66;5035369;28;20037;-75
2024/02/27 02:42:10;;;;;;;21.00;18.02;;;;;;;7.75;73.20;97458.66;5034500;28;20017;-75
2024/02/27 02:44:40;;;;;;;20.65;17.65;;;;;;;7.93;72.99;97479.06;5035570;28;20044;-75
2024/02/27 02:47:08;;;;;;;23.67;18.77;;;;;;;7.99;72.95;97483.41;5016039;28;20060;-75
2024/02/27 02:49:38;;;;;;;24.67;19.02;;;;;;;7.94;73.42;97476.13;5018599;28;20420;-75
2024/02/27 02:52:04;;;;;;;24.30;20.00;;;;;;;7.87;72.99;97480.84;5001432;28;20025;-75
2024/02/27 02:54:29;;;;;;;24.17;20.83;;;;;;;7.79;73.72;97467.84;5003961;28;20025;-75
2024/02/27 02:56:58;;;;;;;24.83;20.40;;;;;;;7.79;73.50;97464.34;5017741;28;20455;-75
2024/02/27 02:59:25;;;;;;;22.67;20.23;;;;;;;7.74;74.15;97453.56;5033619;28;20134;-75
2024/02/27 03:01:51;;;;;;;25.63;20.77;;;;;;;7.90;73.97;97484.91;5019762;28;20559;-77
2024/02/27 03:04:19;;;;;;;25.98;21.83;;;;;;;7.83;73.73;97485.06;5020064;28;20044;-76
2024/02/27 03:06:47;;;;;;;30.70;23.95;;;;;;;7.82;75.29;97493.34;5004088;28;20034;-77
2024/02/27 03:09:13;;;;;;;28.65;22.73;;;;;;;7.59;74.97;97467.50;5038669;28;20026;-77
2024/02/27 03:11:38;;;;;;;27.85;23.42;;;;;;;7.49;74.86;97456.66;5039722;28;20036;-77
2024/02/27 03:14:06;;;;;;;29.98;23.77;;;;;;;7.58;74.67;97471.25;5022170;28;20448;-76
2024/02/27 03:16:34;;;;;;;31.30;24.17;;;;;;;7.74;75.29;97502.59;5006684;28;20120;-75
2024/02/27 03:19:00;;;;;;;29.08;23.90;;;;;;;7.69;75.68;97499.84;5020493;28;20060;-74
2024/02/27 03:21:27;;;;;;;29.00;24.20;;;;;;;7.56;75.67;97484.09;5018816;28;20038;-75
2024/02/27 03:23:56;;;;;;;26.90;23.85;;;;;;;7.66;76.04;97494.97;5021697;28;20048;-75
2024/02/27 03:26:21;;;;;;;29.77;24.95;;;;;;;7.49;75.64;97478.88;5005992;28;20037;-75
2024/02/27 03:28:49;;;;;;;28.42;24.35;;;;;;;7.13;76.13;97422.25;5009442;28;20021;-74
2024/02/27 03:31:17;;;;;;;32.55;26.08;;;;;;;7.36;75.72;97456.94;5001196;28;20034;-75
2024/02/27 03:33:43;;;;;;;27.77;24.58;;;;;;;7.50;75.61;97491.22;5024351;28;20053;-74
2024/02/27 03:36:09;;;;;;;35.15;27.20;;;;;;;7.51;76.04;97492.81;5037305;28;20098;-73
2024/02/27 03:38:35;;;;;;;34.25;27.90;;;;;;;7.49;76.24;97499.50;5035869;28;20021;-74
2024/02/27 03:41:03;;;;;;;32.58;27.55;;;;;;;7.56;76.30;97489.44;5019427;28;20095;-74
2024/02/27 03:43:29;;;;;;;35.08;29.13;;;;;;;7.58;77.18;97503.41;5019990;28;20053;-74
2024/02/27 03:45:54;;;;;;;35.63;29.50;;;;;;;7.43;77.79;97495.91;5046455;28;20524;-74
2024/02/27 03:48:20;;;;;;;37.03;30.17;;;;;;;7.47;78.11;97498.91;5015017;28;20025;-74
2024/02/27 03:50:57;;;;;;;38.92;31.92;;;;;;;7.47;77.67;97501.59;5019597;28;20033;-74
2024/02/27 03:53:22;;;;;;;36.20;30.60;;;;;;;7.34;77.44;97497.38;5029928;28;20029;-74
2024/02/27 03:55:48;;;;;;;39.58;32.15;;;;;;;7.35;78.93;97504.34;5032758;28;20116;-74
2024/02/27 03:58:13;;;;;;;38.70;32.67;;;;;;;7.23;78.04;97478.69;5033098;28;20048;-74
2024/02/27 04:00:38;;;;;;;37.63;32.30;;;;;;;7.38;78.05;97497.69;5016171;28;20057;-74
2024/02/27 04:03:04;;;;;;;37.75;30.77;;;;;;;7.35;77.98;97503.53;4994109;28;20041;-75
2024/02/27 04:05:33;;;;;;;36.38;31.33;;;;;;;7.47;79.12;97526.53;5018047;28;20113;-76
2024/02/27 04:08:10;;;;;;;43.65;32.70;;;;;;;7.48;78.42;97532.69;5019848;28;20033;-75
2024/02/27 04:10:42;;;;;;;40.10;31.45;;;;;;;7.45;79.11;97535.84;5019344;28;20041;-74
2024/02/27 04:13:08;;;;;;;38.97;32.05;;;;;;;7.39;78.74;97524.25;5032269;28;20123;-74
2024/02/27 04:15:33;;;;;;;40.63;32.10;;;;;;;7.43;78.60;97536.09;5013025;28;20458;-74
2024/02/27 04:17:59;;;;;;;41.95;32.00;;;;;;;7.46;78.30;97542.84;5002360;28;20042;-74
2024/02/27 04:20:24;;;;;;;39.70;31.55;;;;;;;7.40;78.51;97538.44;5025995;28;20032;-77
2024/02/27 04:22:49;;;;;;;38.08;31.75;;;;;;;7.26;79.22;97521.06;5037136;28;20042;-75
2024/02/27 04:25:15;;;;;;;40.92;31.88;;;;;;;7.34;79.13;97539.41;5038177;28;20451;-74
2024/02/27 04:27:41;;;;;;;39.45;31.85;;;;;;;7.48;78.83;97567.53;5025246;28;20044;-73
2024/02/27 04:30:11;;;;;;;41.42;33.13;;;;;;;7.39;78.78;97548.34;5020690;28;20120;-73
2024/02/27 04:32:38;;;;;;;44.03;32.95;;;;;;;7.49;78.85;97569.94;5005466;28;20140;-74
2024/02/27 04:35:05;;;;;;;39.42;32.63;;;;;;;7.45;78.52;97562.63;5005892;28;20025;-73
2024/02/27 04:37:31;;;;;;;40.35;32.95;;;;;;;7.45;79.11;97555.41;5028122;28;20094;-75
2024/02/27 04:39:58;;;;;;;39.65;32.85;;;;;;;7.35;79.43;97546.41;5010483;28;20500;-75
2024/02/27 04:42:24;;;;;;;40.90;32.45;;;;;;;7.50;78.58;97570.78;5026690;28;20104;-75
2024/02/27 04:44:54;;;;;;;41.97;33.90;;;;;;;7.48;78.90;97572.88;5036988;28;20035;-74
2024/02/27 04:47:27;;;;;;;41.13;33.42;;;;;;;7.46;78.68;97585.72;5020171;28;20043;-73
2024/02/27 04:49:53;;;;;;;38.58;33.15;;;;;;;7.40;79.38;97570.56;5002825;28;20034;-74
2024/02/27 04:52:19;;;;;;;40.60;33.47;;;;;;;7.45;79.93;97584.88;5034453;28;20021;-75
2024/02/27 04:54:44;;;;;;;40.67;34.22;;;;;;;7.38;79.41;97568.16;5004713;28;20107;-74
2024/02/27 04:57:09;;;;;;;39.70;32.78;;;;;;;7.40;79.31;97587.47;5020018;28;20029;-76
2024/02/27 04:59:35;;;;;;;41.33;34.72;;;;;;;7.44;79.60;97579.78;5017131;28;20037;-75
2024/02/27 05:02:01;;;;;;;42.95;33.42;;;;;;;7.48;79.22;97588.94;5016580;28;20377;-74
2024/02/27 05:04:26;;;;;;;38.17;32.13;;;;;;;7.43;79.68;97586.19;5012142;28;20042;-74
2024/02/27 05:06:51;;;;;;;38.35;32.65;;;;;;;7.49;79.61;97591.38;5015455;28;20075;-74
2024/02/27 05:09:17;;;;;;;41.40;32.63;;;;;;;7.46;79.89;97567.78;5011929;28;20041;-74
2024/02/27 05:11:44;;;;;;;41.22;33.42;;;;;;;7.49;79.31;97579.88;5014894;28;20061;-74
2024/02/27 05:14:10;;;;;;;40.33;33.30;;;;;;;7.53;80.12;97581.84;5016048;28;20048;-75
2024/02/27 05:16:35;;;;;;;41.90;33.42;;;;;;;7.61;80.09;97599.38;5016990;28;20022;-75
2024/02/27 05:19:00;;;;;;;40.60;32.65;;;;;;;7.60;80.10;97603.94;5015431;28;20033;-76
2024/02/27 05:21:26;;;;;;;40.03;33.22;;;;;;;7.61;79.18;97594.00;4999193;28;20033;-75
2024/02/27 05:23:51;;;;;;;39.78;32.28;;;;;;;7.59;79.58;97606.84;4998991;28;20045;-75
2024/02/27 05:26:17;;;;;;;42.90;35.10;;;;;;;7.62;79.57;97603.69;4999761;28;20031;-76
2024/02/27 05:28:42;;;;;;;58.20;52.58;;;;;;;7.56;79.36;97585.91;4996559;28;20510;-76
2024/02/27 05:31:29;;;;;;;38.75;34.33;;;;;;;7.67;79.43;97619.88;5013711;28;20385;-76
2024/02/27 05:33:56;;;;;;;42.47;34.10;;;;;;;7.51;79.43;97593.84;4999769;28;20037;-76
2024/02/27 05:36:22;;;;;;;41.67;34.40;;;;;;;7.64;79.02;97605.06;5006546;28;20022;-75
2024/02/27 05:38:50;;;;;;;46.33;35.42;;;;;;;7.52;79.04;97600.81;5012512;28;20486;-76
2024/02/27 05:41:17;;;;;;;40.42;33.20;;;;;;;7.68;79.15;97620.69;5018909;28;20127;-75
2024/02/27 05:43:42;;;;;;;43.47;35.00;;;;;;;7.63;79.37;97608.78;5000202;28;20079;-74
2024/02/27 05:46:09;;;;;;;43.17;34.42;;;;;;;7.66;79.06;97628.94;5016187;28;20025;-74
2024/02/27 05:48:41;;;;;;;44.22;36.10;;;;;;;7.62;79.06;97611.72;4999755;28;20088;-75
2024/02/27 05:51:07;;;;;;;41.55;33.85;;;;;;;7.69;78.79;97625.78;5015742;28;20041;-74
2024/02/27 05:53:34;;;;;;;43.15;35.28;;;;;;;7.66;79.00;97628.94;5032657;28;20028;-75
2024/02/27 05:56:00;;;;;;;39.47;33.75;;;;;;;7.63;79.42;97618.72;5016476;28;20124;-76
2024/02/27 05:58:25;;;;;;;43.30;35.95;;;;;;;7.71;79.30;97631.72;5015081;28;20104;-76
2024/02/27 06:00:52;;;;;;;43.58;35.90;;;;;;;7.76;79.47;97645.22;4995268;28;20101;-75
2024/02/27 06:03:21;;;;;;;44.67;36.05;;;;;;;7.57;79.02;97625.03;5017285;28;20030;-76
2024/02/27 06:05:46;;;;;;;42.95;34.08;;;;;;;7.79;79.12;97649.28;5009977;28;20037;-77
2024/02/27 06:08:15;;;;;;;47.92;36.58;;;;;;;7.68;78.95;97649.09;5024297;28;20049;-77
2024/02/27 06:10:43;;;;;;;46.85;36.95;;;;;;;7.75;79.99;97648.94;4998038;28;20076;-77
2024/02/27 06:13:17;;;;;;;46.00;37.45;;;;;;;7.83;78.83;97667.34;5015524;28;20021;-76
2024/02/27 06:15:45;;;;;;;48.38;38.10;;;;;;;7.78;79.81;97651.16;4996029;28;20026;-76
2024/02/27 06:18:14;;;;;;;47.42;37.15;;;;;;;7.69;79.50;97649.91;5031141;28;20131;-77
2024/02/27 06:23:28;;;;;;;47.30;37.80;;;;;;;7.82;79.67;97660.34;5031235;28;20041;-76
2024/02/27 06:25:54;;;;;;;56.65;45.63;;;;;;;7.83;79.87;97661.97;4997927;28;20025;-76
2024/02/27 06:28:20;;;;;;;49.30;38.55;;;;;;;7.74;79.89;97647.34;5014319;28;20088;-77
2024/02/27 06:30:46;;;;;;;48.38;39.83;;;;;;;7.72;79.23;97646.75;5031256;28;20028;-77
2024/02/27 06:33:12;;;;;;;49.67;38.13;;;;;;;7.81;79.51;97661.41;5030816;28;20038;-77
2024/02/27 06:35:37;;;;;;;46.70;38.88;;;;;;;7.74;79.78;97647.34;5031092;28;20531;-76
2024/02/27 06:38:04;;;;;;;52.15;39.85;;;;;;;7.72;79.83;97644.09;5014721;28;20041;-77
2024/02/27 06:40:29;;;;;;;50.80;39.58;;;;;;;7.83;80.25;97675.38;5047065;28;20091;-76
2024/02/27 06:42:55;;;;;;;48.50;37.58;;;;;;;7.88;79.25;97686.19;5014319;28;20116;-76
2024/02/27 06:45:20;;;;;;;50.15;39.28;;;;;;;7.87;79.41;97695.28;5014287;28;20101;-77
2024/02/27 06:47:46;;;;;;;51.10;40.20;;;;;;;7.87;79.36;97689.09;5011625;28;20507;-76
2024/02/27 06:50:12;;;;;;;49.67;40.00;;;;;;;7.85;79.85;97685.84;5016280;28;20017;-76
2024/02/27 06:52:38;;;;;;;51.53;40.88;;;;;;;7.90;79.08;97694.81;5019535;28;20036;-76
2024/02/27 06:55:05;;;;;;;52.40;40.20;;;;;;;7.92;79.35;97690.03;5032455;28;20037;-76
2024/02/27 06:57:30;;;;;;;53.97;40.72;;;;;;;7.87;79.76;97692.59;5015194;28;20033;-76
2024/02/27 06:59:56;;;;;;;53.88;40.42;;;;;;;7.88;79.44;97691.56;5014609;28;20027;-77
2024/02/27 07:02:21;;;;;;;55.63;41.45;;;;;;;8.00;79.48;97716.47;5014131;28;20070;-76
2024/02/27 07:04:47;;;;;;;56.40;42.42;;;;;;;8.11;79.66;97718.28;5002731;28;20112;-75
2024/02/27 07:07:12;;;;;;;57.85;42.78;;;;;;;7.99;79.70;97712.13;5017086;28;20038;-76
2024/02/27 07:09:38;;;;;;;55.50;42.05;;;;;;;8.08;79.11;97717.91;5021866;28;20029;-76
2024/02/27 07:12:04;;;;;;;56.05;42.53;;;;;;;8.13;78.75;97720.69;5018276;28;20116;-76
2024/02/27 07:14:29;;;;;;;58.90;42.97;;;;;;;7.92;79.65;97692.69;4997281;28;20031;-77
2024/02/27 07:16:55;;;;;;;57.78;41.65;;;;;;;8.13;79.31;97726.88;5018086;28;20040;-77
2024/02/27 07:19:21;;;;;;;55.85;41.85;;;;;;;8.07;79.71;97710.94;5014666;28;20432;-77
2024/02/27 07:21:49;;;;;;;57.95;42.97;;;;;;;8.02;79.78;97709.00;5001170;28;20527;-77
2024/02/27 07:24:15;;;;;;;58.30;41.50;;;;;;;8.20;79.20;97732.09;5033807;28;20021;-76
2024/02/27 07:26:41;;;;;;;55.60;41.55;;;;;;;8.16;79.02;97721.06;5016747;28;20040;-77
2024/02/27 07:29:07;;;;;;;55.97;41.58;;;;;;;8.09;78.43;97720.38;5000264;28;20382;-75
2024/02/27 07:31:32;;;;;;;54.97;41.65;;;;;;;8.25;78.85;97743.75;5017075;28;20036;-77
2024/02/27 07:33:58;;;;;;;57.00;42.70;;;;;;;8.12;79.01;97735.97;4998547;28;20022;-77
2024/02/27 07:36:23;;;;;;;54.22;39.90;;;;;;;8.16;78.43;97734.47;5000423;28;20041;-77
2024/02/27 07:38:49;;;;;;;60.70;43.40;;;;;;;8.20;79.01;97743.66;5033125;28;20036;-77
2024/02/27 07:41:14;;;;;;;58.17;42.88;;;;;;;8.20;78.57;97738.28;4999442;28;20082;-77
2024/02/27 07:43:40;;;;;;;55.58;42.63;;;;;;;8.09;79.29;97724.94;5000729;28;20026;-77
2024/02/27 07:46:05;;;;;;;56.53;43.30;;;;;;;8.21;79.38;97745.25;5022914;28;20709;-77
2024/02/27 07:48:31;;;;;;;59.20;43.63;;;;;;;8.24;79.39;97738.59;5013355;28;20028;-76
2024/02/27 07:50:56;;;;;;;60.63;43.08;;;;;;;8.35;79.31;97749.31;5032952;28;20175;-77
2024/02/27 07:53:22;;;;;;;60.42;43.78;;;;;;;8.22;79.59;97738.84;5033083;28;20022;-77
2024/02/27 07:55:47;;;;;;;60.95;42.35;;;;;;;8.43;79.22;97741.91;4997287;28;20405;-76
2024/02/27 07:58:14;;;;;;;56.95;41.65;;;;;;;8.45;79.37;97751.34;4998309;28;20079;-77
2024/02/27 08:00:39;;;;;;;59.03;42.55;;;;;;;8.46;79.22;97753.00;5014377;28;20140;-76
2024/02/27 08:03:05;;;;;;;57.28;41.65;;;;;;;8.33;79.73;97732.63;5014602;28;20489;-76
2024/02/27 08:05:30;;;;;;;58.40;41.80;;;;;;;8.57;78.80;97756.66;5031087;28;20110;-77
2024/02/27 08:07:56;;;;;;;55.20;39.80;;;;;;;8.59;78.60;97751.91;5017477;28;20033;-76
2024/02/27 08:10:21;;;;;;;52.38;37.20;;;;;;;8.52;77.87;97740.50;5034551;28;20029;-76
2024/02/27 08:12:50;;;;;;;55.15;39.75;;;;;;;8.55;78.17;97756.09;5001072;28;20392;-76
2024/02/27 08:15:16;;;;;;;56.53;40.90;;;;;;;8.53;78.24;97742.09;5031750;28;20555;-76
2024/02/27 08:17:44;;;;;;;56.67;39.70;;;;;;;8.51;78.08;97744.22;5033723;28;20025;-77
2024/02/27 08:20:10;;;;;;;54.88;41.22;;;;;;;8.61;78.41;97749.78;5026915;28;20404;-76
2024/02/27 08:22:36;;;;;;;60.30;41.90;;;;;;;8.66;78.94;97757.91;5015922;28;20267;-77
2024/02/27 08:25:01;;;;;;;57.20;41.30;;;;;;;8.53;78.50;97731.38;5033457;28;20136;-77
2024/02/27 08:27:27;;;;;;;53.45;39.25;;;;;;;8.63;78.69;97753.03;5016222;28;20028;-77
2024/02/27 08:29:52;;;;;;;54.58;40.53;;;;;;;8.70;78.68;97751.00;5016096;28;20052;-76
2024/02/27 08:32:19;;;;;;;47.47;37.45;;;;;;;8.58;78.11;97726.09;5013997;28;20018;-76
2024/02/27 08:34:45;;;;;;;51.55;36.50;;;;;;;8.82;78.12;97757.13;5011170;28;20109;-77
2024/02/27 08:37:11;;;;;;;50.20;37.08;;;;;;;8.68;77.53;97723.59;5014172;28;20116;-77
2024/02/27 08:39:36;;;;;;;46.50;32.67;;;;;;;8.80;77.72;97764.56;5030935;28;20476;-76
2024/02/27 08:42:02;;;;;;;51.35;36.25;;;;;;;8.73;77.48;97747.81;4997725;28;20025;-76
2024/02/27 08:44:27;;;;;;;45.28;33.85;;;;;;;8.89;77.09;97773.88;5014165;28;20036;-76
2024/02/27 08:46:53;;;;;;;44.38;32.95;;;;;;;8.79;76.72;97762.97;4998569;28;20473;-76
2024/02/27 08:49:18;;;;;;;47.75;34.15;;;;;;;8.96;76.75;97779.91;5014858;28;20030;-77
2024/02/27 08:51:44;;;;;;;45.88;35.25;;;;;;;9.04;77.56;97768.72;5012629;28;20553;-77
2024/02/27 08:54:10;;;;;;;45.30;33.72;;;;;;;9.03;76.87;97769.81;4994300;28;20038;-77
2024/02/27 08:56:39;;;;;;;45.10;32.90;;;;;;;8.91;75.99;97755.66;5015370;28;20116;-77
2024/02/27 08:59:05;;;;;;;44.78;34.88;;;;;;;9.10;76.53;97789.25;5015584;28;20073;-76
2024/02/27 09:01:30;;;;;;;43.67;32.38;;;;;;;9.11;75.34;97760.50;4999337;28;20137;-77
2024/02/27 09:03:56;;;;;;;46.17;33.58;;;;;;;9.22;76.12;97767.69;5015664;28;20037;-76
2024/02/27 09:06:21;;;;;;;47.30;34.63;;;;;;;9.21;75.47;97756.09;4998997;28;20496;-77
2024/02/27 09:08:47;;;;;;;44.35;33.25;;;;;;;9.05;75.40;97751.56;5015180;28;20092;-76
2024/02/27 09:11:12;;;;;;;44.13;33.75;;;;;;;9.03;75.36;97764.44;5015362;28;20132;-76
2024/02/27 09:13:38;;;;;;;44.17;33.38;;;;;;;8.84;75.01;97717.41;5006712;28;20087;-77
2024/02/27 09:16:04;;;;;;;42.50;32.17;;;;;;;9.08;75.08;97767.19;5031880;28;20025;-77
2024/02/27 09:18:30;;;;;;;43.42;31.98;;;;;;;9.01;75.28;97761.97;5002734;28;20037;-77
2024/02/27 09:20:55;;;;;;;44.78;32.65;;;;;;;9.02;75.24;97769.00;5015034;28;20152;-77
2024/02/27 09:23:20;;;;;;;42.45;31.50;;;;;;;9.09;75.36;97758.06;5013656;28;20052;-77
2024/02/27 09:25:46;;;;;;;44.38;33.83;;;;;;;8.76;75.73;97693.63;5014538;28;20123;-76
2024/02/27 09:28:13;;;;;;;42.30;31.48;;;;;;;9.25;74.55;97767.97;5014947;28;20037;-77
2024/02/27 09:30:38;;;;;;;41.47;31.63;;;;;;;9.09;74.46;97752.69;4995393;28;20026;-77
2024/02/27 09:33:04;;;;;;;42.28;32.53;;;;;;;9.23;75.29;97775.47;5015620;28;20040;-77
2024/02/27 09:35:29;;;;;;;37.63;30.02;;;;;;;9.26;75.00;97775.00;5031031;28;20029;-77
2024/02/27 09:37:55;;;;;;;43.90;34.30;;;;;;;9.23;75.39;97769.28;5011205;28;20029;-77
2024/02/27 09:40:20;;;;;;;42.75;31.55;;;;;;;9.33;75.11;97762.22;5030925;28;20393;-77
2024/02/27 09:42:51;;;;;;;40.15;29.77;;;;;;;9.34;74.88;97766.50;4998206;28;20041;-77
2024/02/27 09:45:19;;;;;;;44.03;31.63;;;;;;;9.27;74.51;97728.25;4998261;28;20033;-77
2024/02/27 09:47:47;;;;;;;46.85;34.08;;;;;;;9.38;74.15;97750.72;5031179;28;20369;-77
2024/02/27 09:50:18;;;;;;;49.25;33.70;;;;;;;9.37;74.73;97760.63;5014288;28;20033;-77
2024/02/27 09:52:46;;;;;;;46.35;33.55;;;;;;;9.43;74.50;97765.00;5014670;28;20038;-77
2024/02/27 09:55:11;;;;;;;44.50;32.50;;;;;;;9.55;73.96;97763.03;5014134;28;20025;-77
2024/02/27 09:57:37;;;;;;;38.47;30.92;;;;;;;9.52;74.04;97771.59;4998078;28;20550;-77
2024/02/27 10:00:03;;;;;;;43.33;32.78;;;;;;;9.43;74.22;97754.25;5030296;28;20512;-77
2024/02/27 10:02:38;;;;;;;39.95;30.55;;;;;;;9.28;74.12;97719.13;5030599;28;20037;-76
2024/02/27 10:05:04;;;;;;;40.75;30.27;;;;;;;9.61;73.54;97759.34;4998006;28;20083;-77
2024/02/27 10:07:31;;;;;;;37.92;29.08;;;;;;;9.57;73.94;97760.91;5014077;28;20121;-77
2024/02/27 10:09:56;;;;;;;36.72;29.48;;;;;;;9.77;73.78;97764.94;5030173;28;20033;-77
2024/02/27 10:12:22;;;;;;;37.53;29.27;;;;;;;9.66;73.06;97758.63;5006094;28;20484;-77
2024/02/27 10:14:47;;;;;;;37.92;30.40;;;;;;;9.44;74.09;97745.16;5014257;28;20091;-77
2024/02/27 10:17:12;;;;;;;36.63;28.67;;;;;;;9.64;73.27;97761.53;5006842;28;20084;-77
2024/02/27 10:19:38;;;;;;;36.55;28.38;;;;;;;9.66;73.37;97759.41;5013159;28;20148;-77
2024/02/27 10:22:04;;;;;;;39.20;29.75;;;;;;;9.61;74.16;97783.53;5030285;28;20036;-77
2024/02/27 10:24:29;;;;;;;35.47;28.60;;;;;;;9.68;73.79;97786.88;4997681;28;20041;-76
2024/02/27 10:26:56;;;;;;;35.38;28.80;;;;;;;9.71;73.64;97783.69;5014146;28;20120;-77
2024/02/27 10:29:23;;;;;;;37.45;29.23;;;;;;;9.70;73.80;97770.50;5014945;28;20492;-77
2024/02/27 10:31:50;;;;;;;37.53;29.30;;;;;;;9.60;73.95;97760.41;5031348;28;20017;-77
2024/02/27 10:34:15;;;;;;;38.35;29.65;;;;;;;9.75;73.76;97779.44;5030228;28;20037;-77
2024/02/27 10:36:41;;;;;;;36.47;28.23;;;;;;;9.66;73.69;97764.78;5011323;28;20382;-77
2024/02/27 10:39:10;;;;;;;36.20;27.92;;;;;;;9.75;72.89;97784.03;5018599;28;20045;-77
2024/02/27 10:41:42;;;;;;;34.60;27.02;;;;;;;9.60;73.34;97765.81;5016016;28;20113;-77
2024/02/27 10:44:08;;;;;;;35.78;28.45;;;;;;;9.84;73.22;97792.47;5034434;28;20507;-77
2024/02/27 10:46:36;;;;;;;33.25;27.27;;;;;;;9.89;72.75;97808.66;5035665;28;20393;-77
2024/02/27 10:49:03;;;;;;;31.85;26.30;;;;;;;9.99;72.90;97811.50;5000359;28;20141;-77
2024/02/27 10:51:28;;;;;;;37.00;28.75;;;;;;;9.95;72.92;97794.19;5037416;28;20026;-77
2024/02/27 10:53:56;;;;;;;37.13;27.55;;;;;;;9.99;72.59;97806.91;5035539;28;20508;-77
2024/02/27 10:56:22;;;;;;;34.97;28.25;;;;;;;10.16;72.61;97812.25;5035030;28;20024;-77
2024/02/27 10:58:48;;;;;;;33.97;28.60;;;;;;;10.04;72.00;97779.25;5033853;28;20037;-77
2024/02/27 11:01:14;;;;;;;34.50;27.52;;;;;;;10.25;71.62;97797.28;5017311;28;20029;-77
2024/02/27 11:03:40;;;;;;;33.90;28.08;;;;;;;10.14;72.19;97777.53;5033827;28;20473;-77
2024/02/27 11:06:09;;;;;;;36.03;27.27;;;;;;;10.20;71.98;97781.09;5035145;28;20036;-77
2024/02/27 11:08:34;;;;;;;35.92;28.23;;;;;;;10.40;72.66;97797.47;5000629;28;20104;-76
2024/02/27 11:11:00;;;;;;;32.25;27.77;;;;;;;10.41;71.97;97788.31;5000754;28;20021;-77
2024/02/27 11:13:25;;;;;;;33.15;25.90;;;;;;;10.63;70.39;97807.13;5034948;28;20498;-77
2024/02/27 11:15:52;;;;;;;34.38;26.33;;;;;;;10.38;70.79;97778.06;5017235;28;20032;-77
2024/02/27 11:18:20;;;;;;;33.53;26.10;;;;;;;10.46;71.39;97807.22;5000779;28;20120;-77
2024/02/27 11:20:46;;;;;;;32.13;25.38;;;;;;;10.47;71.07;97802.66;4997163;28;20021;-77
2024/02/27 11:23:11;;;;;;;31.00;24.65;;;;;;;10.34;70.98;97795.78;5016816;28;20029;-77
2024/02/27 11:25:37;;;;;;;30.65;25.52;;;;;;;10.41;70.89;97807.16;5000942;28;20087;-77